Terminal Aerodrome Forecast
Issued by NWS St Louis, MO

Home | Current Version | Previous Version | Text Only | Print | Product List | Glossary On
Versions: 1 2 3 4 5 6 7 8 9 10 11 12 13 14 15 16 17 18 19 20 21 22 23 24 25 26 27 28 29 30 31 32 33 34 35 36 37 38
000
FTUS43 KLSX 021100
TAFSTL
TAF
KSTL 021131Z 0212/0318 18005KT P6SM SCT005 SCT015 BKN050
      TEMPO 0212/0215 BKN015
     FM021500 VRB05KT P6SM BKN030
     FM021700 29006KT P6SM SCT040
     FM030100 VRB04KT P6SM SKC=

USA.gov is the U.S. government's official web portal to all federal, state and local government web resources and services.